Terminal Aerodrome Forecast
Issued by NWS

Home | Current Version | Previous Version | Text Only | Print | Product List | Glossary On
Versions: 1 2 3 4 5 6 7 8 9 10 11 12 13 14 15 16 17 18 19 20 21
222
FTUS43 KIND 240520
TAFHUF
TAF
KHUF 240520Z 2406/2506 17011G19KT P6SM BKN080
     FM240700 17012G20KT P6SM BKN080 WS020/19040KT
     FM241000 18014G23KT P6SM BKN080 WS020/20040KT
     FM241200 19016G26KT P6SM BKN060
     FM242000 21018G27KT P6SM VCTS BKN050CB
     FM242300 23014G22KT P6SM SHRA VCTS BKN030CB
     FM250000 24011KT P6SM SHRA BKN025=

USA.gov is the U.S. government's official web portal to all federal, state and local government web resources and services.